sensor_id;sensor_type;location;lat;lon;timestamp;pressure;altitude;pressure_sealevel;temperature;humidity
2178;BME280;1095;50.992;6.798;2022-07-30T00:02:10;100983.78;;;18.10;80.83
2178;BME280;1095;50.992;6.798;2022-07-30T00:04:37;100982.94;;;18.03;81.04
2178;BME280;1095;50.992;6.798;2022-07-30T00:07:03;100984.72;;;17.96;80.74
2178;BME280;1095;50.992;6.798;2022-07-30T00:09:30;100980.22;;;17.90;80.96
2178;BME280;1095;50.992;6.798;2022-07-30T00:11:56;100974.31;;;17.88;81.21
2178;BME280;1095;50.992;6.798;2022-07-30T00:14:23;100974.47;;;17.80;81.49
2178;BME280;1095;50.992;6.798;2022-07-30T00:16:50;100985.44;;;17.77;81.73
2178;BME280;1095;50.992;6.798;2022-07-30T00:19:18;100980.53;;;17.74;81.79
2178;BME280;1095;50.992;6.798;2022-07-30T00:21:44;100983.88;;;17.61;82.35
2178;BME280;1095;50.992;6.798;2022-07-30T00:24:11;100979.78;;;17.58;82.63
2178;BME280;1095;50.992;6.798;2022-07-30T00:26:37;100983.44;;;17.57;82.63
2178;BME280;1095;50.992;6.798;2022-07-30T00:29:04;100986.28;;;17.56;83.04
2178;BME280;1095;50.992;6.798;2022-07-30T00:31:30;100978.91;;;17.51;83.26
2178;BME280;1095;50.992;6.798;2022-07-30T00:33:57;100979.72;;;17.45;83.29
2178;BME280;1095;50.992;6.798;2022-07-30T00:36:25;100983.13;;;17.39;83.79
2178;BME280;1095;50.992;6.798;2022-07-30T00:38:51;100985.97;;;17.38;84.10
2178;BME280;1095;50.992;6.798;2022-07-30T00:41:17;100988.75;;;17.30;84.21
2178;BME280;1095;50.992;6.798;2022-07-30T00:43:44;100987.84;;;17.22;84.65
2178;BME280;1095;50.992;6.798;2022-07-30T00:46:11;100984.22;;;17.23;84.95
2178;BME280;1095;50.992;6.798;2022-07-30T00:48:38;100984.41;;;17.22;84.81
2178;BME280;1095;50.992;6.798;2022-07-30T00:51:05;100976.53;;;17.29;84.50
2178;BME280;1095;50.992;6.798;2022-07-30T00:53:33;100984.66;;;17.27;84.34
2178;BME280;1095;50.992;6.798;2022-07-30T00:56:00;100985.78;;;17.18;84.68
2178;BME280;1095;50.992;6.798;2022-07-30T00:58:27;100982.13;;;17.19;84.26
2178;BME280;1095;50.992;6.798;2022-07-30T01:00:53;100977.41;;;17.14;84.42
2178;BME280;1095;50.992;6.798;2022-07-30T01:03:19;100983.91;;;17.12;84.37
2178;BME280;1095;50.992;6.798;2022-07-30T01:05:46;100984.34;;;17.15;84.22
2178;BME280;1095;50.992;6.798;2022-07-30T01:08:12;100986.03;;;17.02;84.74
2178;BME280;1095;50.992;6.798;2022-07-30T01:10:40;100990.47;;;16.95;85.08
2178;BME280;1095;50.992;6.798;2022-07-30T01:13:07;100991.03;;;16.90;85.40
2178;BME280;1095;50.992;6.798;2022-07-30T01:15:34;100994.88;;;16.87;85.30
2178;BME280;1095;50.992;6.798;2022-07-30T01:18:01;100997.25;;;16.82;85.80
2178;BME280;1095;50.992;6.798;2022-07-30T01:20:31;101004.56;;;16.80;85.97
2178;BME280;1095;50.992;6.798;2022-07-30T01:23:00;100993.97;;;16.80;85.72
2178;BME280;1095;50.992;6.798;2022-07-30T01:25:40;100998.44;;;16.80;85.58
2178;BME280;1095;50.992;6.798;2022-07-30T01:28:09;100996.19;;;16.77;85.74
2178;BME280;1095;50.992;6.798;2022-07-30T01:30:37;100994.34;;;16.77;85.81
2178;BME280;1095;50.992;6.798;2022-07-30T01:33:05;100991.06;;;16.75;85.92
2178;BME280;1095;50.992;6.798;2022-07-30T01:35:33;100992.19;;;16.66;86.24
2178;BME280;1095;50.992;6.798;2022-07-30T01:38:00;100984.97;;;16.60;86.55
2178;BME280;1095;50.992;6.798;2022-07-30T01:40:29;100992.91;;;16.60;86.70
2178;BME280;1095;50.992;6.798;2022-07-30T01:42:57;100985.63;;;16.62;86.67
2178;BME280;1095;50.992;6.798;2022-07-30T01:45:26;100989.19;;;16.54;86.70
2178;BME280;1095;50.992;6.798;2022-07-30T01:47:53;100992.78;;;16.47;87.14
2178;BME280;1095;50.992;6.798;2022-07-30T01:55:29;101006.81;;;16.33;87.69
2178;BME280;1095;50.992;6.798;2022-07-30T01:57:57;101002.28;;;16.26;88.15
2178;BME280;1095;50.992;6.798;2022-07-30T02:00:24;100998.53;;;16.21;88.23
2178;BME280;1095;50.992;6.798;2022-07-30T02:02:51;101001.72;;;16.16;88.30
2178;BME280;1095;50.992;6.798;2022-07-30T02:05:18;101000.47;;;16.12;88.65
2178;BME280;1095;50.992;6.798;2022-07-30T02:07:45;101007.09;;;16.08;88.74
2178;BME280;1095;50.992;6.798;2022-07-30T02:10:16;101015.03;;;16.08;88.77
2178;BME280;1095;50.992;6.798;2022-07-30T02:12:45;101012.38;;;16.08;88.95
2178;BME280;1095;50.992;6.798;2022-07-30T02:15:15;101008.69;;;16.03;89.10
2178;BME280;1095;50.992;6.798;2022-07-30T02:17:43;101010.03;;;15.99;89.33
2178;BME280;1095;50.992;6.798;2022-07-30T02:20:15;101011.84;;;15.98;89.27
2178;BME280;1095;50.992;6.798;2022-07-30T02:22:42;101007.66;;;15.89;89.67
2178;BME280;1095;50.992;6.798;2022-07-30T02:25:10;101000.94;;;15.86;89.86
2178;BME280;1095;50.992;6.798;2022-07-30T02:27:39;100993.81;;;15.87;90.04
2178;BME280;1095;50.992;6.798;2022-07-30T02:30:08;101000.09;;;15.86;89.74
2178;BME280;1095;50.992;6.798;2022-07-30T02:32:38;101007.03;;;15.87;90.05
2178;BME280;1095;50.992;6.798;2022-07-30T02:35:07;101009.75;;;15.79;90.27
2178;BME280;1095;50.992;6.798;2022-07-30T02:37:34;101005.19;;;15.73;90.66
2178;BME280;1095;50.992;6.798;2022-07-30T02:40:05;101013.47;;;15.70;90.82
2178;BME280;1095;50.992;6.798;2022-07-30T02:42:32;101001.00;;;15.78;90.74
2178;BME280;1095;50.992;6.798;2022-07-30T02:44:58;101013.75;;;15.75;90.85
2178;BME280;1095;50.992;6.798;2022-07-30T02:47:26;101013.09;;;15.73;90.92
2178;BME280;1095;50.992;6.798;2022-07-30T02:49:55;101019.56;;;15.70;91.05
2178;BME280;1095;50.992;6.798;2022-07-30T02:52:22;101017.38;;;15.74;90.97
2178;BME280;1095;50.992;6.798;2022-07-30T02:54:49;101017.47;;;15.80;90.39
2178;BME280;1095;50.992;6.798;2022-07-30T02:57:17;101017.31;;;15.82;90.39
2178;BME280;1095;50.992;6.798;2022-07-30T02:59:45;101015.38;;;15.76;90.68
2178;BME280;1095;50.992;6.798;2022-07-30T03:02:12;101023.00;;;15.71;90.87
2178;BME280;1095;50.992;6.798;2022-07-30T03:04:39;101017.75;;;15.71;91.22
2178;BME280;1095;50.992;6.798;2022-07-30T03:07:07;101027.56;;;15.77;90.73
2178;BME280;1095;50.992;6.798;2022-07-30T03:09:35;101025.94;;;15.76;90.67
2178;BME280;1095;50.992;6.798;2022-07-30T03:12:01;101025.47;;;15.72;90.43
2178;BME280;1095;50.992;6.798;2022-07-30T03:14:28;101030.84;;;15.79;90.36
2178;BME280;1095;50.992;6.798;2022-07-30T03:16:55;101029.50;;;15.83;90.17
2178;BME280;1095;50.992;6.798;2022-07-30T03:19:23;101025.94;;;15.76;90.49
2178;BME280;1095;50.992;6.798;2022-07-30T03:21:50;101026.94;;;15.75;90.72
2178;BME280;1095;50.992;6.798;2022-07-30T03:24:19;101026.91;;;15.60;90.92
2178;BME280;1095;50.992;6.798;2022-07-30T03:26:48;101029.31;;;15.47;91.61
2178;BME280;1095;50.992;6.798;2022-07-30T03:29:16;101031.84;;;15.40;91.94
2178;BME280;1095;50.992;6.798;2022-07-30T03:31:43;101023.66;;;15.35;92.62
2178;BME280;1095;50.992;6.798;2022-07-30T03:34:10;101028.44;;;15.32;92.51
2178;BME280;1095;50.992;6.798;2022-07-30T03:36:37;101019.44;;;15.26;92.88
2178;BME280;1095;50.992;6.798;2022-07-30T03:39:04;101018.50;;;15.19;93.38
2178;BME280;1095;50.992;6.798;2022-07-30T03:41:33;101014.56;;;15.15;93.52
2178;BME280;1095;50.992;6.798;2022-07-30T03:44:00;101023.47;;;15.14;93.70
2178;BME280;1095;50.992;6.798;2022-07-30T03:46:27;101018.63;;;15.03;94.08
2178;BME280;1095;50.992;6.798;2022-07-30T03:48:54;101011.88;;;15.00;94.69
2178;BME280;1095;50.992;6.798;2022-07-30T03:51:22;101006.31;;;14.95;94.87
2178;BME280;1095;50.992;6.798;2022-07-30T03:53:50;101011.13;;;14.91;95.17
2178;BME280;1095;50.992;6.798;2022-07-30T03:56:17;101007.38;;;14.86;95.41
2178;BME280;1095;50.992;6.798;2022-07-30T03:58:45;101021.53;;;14.85;95.66
2178;BME280;1095;50.992;6.798;2022-07-30T04:01:12;101017.56;;;14.89;95.35
2178;BME280;1095;50.992;6.798;2022-07-30T04:03:38;101023.31;;;14.92;95.33
2178;BME280;1095;50.992;6.798;2022-07-30T04:06:04;101019.06;;;14.83;95.29
2178;BME280;1095;50.992;6.798;2022-07-30T04:08:31;101026.16;;;14.83;95.49
2178;BME280;1095;50.992;6.798;2022-07-30T04:10:57;101022.81;;;14.89;95.64
2178;BME280;1095;50.992;6.798;2022-07-30T04:13:24;101028.91;;;14.89;95.68
2178;BME280;1095;50.992;6.798;2022-07-30T04:15:53;101038.00;;;14.87;95.78
2178;BME280;1095;50.992;6.798;2022-07-30T04:18:21;101034.19;;;14.89;95.89
2178;BME280;1095;50.992;6.798;2022-07-30T04:20:48;101043.00;;;15.05;95.35
2178;BME280;1095;50.992;6.798;2022-07-30T04:23:17;101041.19;;;15.05;95.22
2178;BME280;1095;50.992;6.798;2022-07-30T04:25:45;101051.19;;;15.10;95.02
2178;BME280;1095;50.992;6.798;2022-07-30T04:28:11;101048.81;;;15.15;94.91
2178;BME280;1095;50.992;6.798;2022-07-30T04:30:39;101050.72;;;15.29;94.59
2178;BME280;1095;50.992;6.798;2022-07-30T04:33:07;101053.63;;;15.34;94.28
2178;BME280;1095;50.992;6.798;2022-07-30T04:35:34;101058.75;;;15.36;94.34
2178;BME280;1095;50.992;6.798;2022-07-30T04:38:00;101066.78;;;15.42;94.13
2178;BME280;1095;50.992;6.798;2022-07-30T04:40:28;101061.59;;;15.49;94.26
2178;BME280;1095;50.992;6.798;2022-07-30T04:42:55;101063.72;;;15.53;93.79
2178;BME280;1095;50.992;6.798;2022-07-30T04:45:22;101072.78;;;15.59;93.95
2178;BME280;1095;50.992;6.798;2022-07-30T04:47:48;101089.25;;;15.76;93.36
2178;BME280;1095;50.992;6.798;2022-07-30T04:50:19;101091.47;;;15.87;92.99
2178;BME280;1095;50.992;6.798;2022-07-30T04:52:46;101095.78;;;16.03;92.66
2178;BME280;1095;50.992;6.798;2022-07-30T04:55:13;101097.41;;;16.04;92.77
2178;BME280;1095;50.992;6.798;2022-07-30T04:57:40;101096.41;;;16.19;92.21
2178;BME280;1095;50.992;6.798;2022-07-30T05:00:08;101095.34;;;16.29;92.20
2178;BME280;1095;50.992;6.798;2022-07-30T05:02:34;101099.25;;;16.33;92.24
2178;BME280;1095;50.992;6.798;2022-07-30T05:05:03;101093.16;;;16.47;92.17
2178;BME280;1095;50.992;6.798;2022-07-30T05:07:31;101095.31;;;16.58;91.93
2178;BME280;1095;50.992;6.798;2022-07-30T05:09:58;101102.25;;;16.74;91.71
2178;BME280;1095;50.992;6.798;2022-07-30T05:12:30;101107.88;;;16.85;91.18
2178;BME280;1095;50.992;6.798;2022-07-30T05:14:57;101113.56;;;17.04;90.59
2178;BME280;1095;50.992;6.798;2022-07-30T05:17:23;101105.59;;;16.97;90.90
2178;BME280;1095;50.992;6.798;2022-07-30T05:19:49;101115.53;;;17.16;90.57
2178;BME280;1095;50.992;6.798;2022-07-30T05:22:16;101114.44;;;17.25;90.43
2178;BME280;1095;50.992;6.798;2022-07-30T05:24:44;101126.41;;;17.43;90.31
2178;BME280;1095;50.992;6.798;2022-07-30T05:27:10;101117.97;;;17.33;91.44
2178;BME280;1095;50.992;6.798;2022-07-30T05:29:36;101113.94;;;17.79;90.62
2178;BME280;1095;50.992;6.798;2022-07-30T05:32:03;101120.34;;;17.92;90.20
2178;BME280;1095;50.992;6.798;2022-07-30T05:34:30;101125.53;;;18.06;88.92
2178;BME280;1095;50.992;6.798;2022-07-30T05:36:56;101123.94;;;18.40;88.44
2178;BME280;1095;50.992;6.798;2022-07-30T05:39:22;101122.59;;;18.22;88.06
2178;BME280;1095;50.992;6.798;2022-07-30T05:41:51;101136.56;;;18.38;88.03
2178;BME280;1095;50.992;6.798;2022-07-30T05:44:17;101133.28;;;18.08;88.41
2178;BME280;1095;50.992;6.798;2022-07-30T05:46:43;101137.56;;;17.81;90.30
2178;BME280;1095;50.992;6.798;2022-07-30T05:49:10;101130.13;;;17.91;90.46
2178;BME280;1095;50.992;6.798;2022-07-30T05:51:36;101130.78;;;17.72;91.06
2178;BME280;1095;50.992;6.798;2022-07-30T05:54:03;101137.81;;;18.42;88.98
2178;BME280;1095;50.992;6.798;2022-07-30T05:56:29;101138.00;;;18.47;87.72
2178;BME280;1095;50.992;6.798;2022-07-30T05:58:57;101142.97;;;18.98;85.82
2178;BME280;1095;50.992;6.798;2022-07-30T06:01:24;101148.47;;;18.89;84.92
2178;BME280;1095;50.992;6.798;2022-07-30T06:03:50;101159.00;;;19.24;84.37
2178;BME280;1095;50.992;6.798;2022-07-30T06:06:17;101151.53;;;18.93;85.12
2178;BME280;1095;50.992;6.798;2022-07-30T06:08:43;101147.13;;;18.66;86.27
2178;BME280;1095;50.992;6.798;2022-07-30T06:11:10;101155.47;;;18.63;86.34
2178;BME280;1095;50.992;6.798;2022-07-30T06:13:36;101137.75;;;17.79;90.12
2178;BME280;1095;50.992;6.798;2022-07-30T06:16:04;101145.25;;;17.76;91.42
2178;BME280;1095;50.992;6.798;2022-07-30T06:18:30;101140.41;;;17.79;91.54
2178;BME280;1095;50.992;6.798;2022-07-30T06:20:57;101148.56;;;17.63;92.53
2178;BME280;1095;50.992;6.798;2022-07-30T06:23:23;101146.66;;;17.72;92.82
2178;BME280;1095;50.992;6.798;2022-07-30T06:25:50;101148.16;;;17.81;91.84
2178;BME280;1095;50.992;6.798;2022-07-30T06:28:17;101153.44;;;17.81;91.42
2178;BME280;1095;50.992;6.798;2022-07-30T06:30:43;101151.69;;;17.88;91.37
2178;BME280;1095;50.992;6.798;2022-07-30T06:33:13;101169.03;;;18.18;89.48
2178;BME280;1095;50.992;6.798;2022-07-30T06:35:40;101164.63;;;17.76;90.68
2178;BME280;1095;50.992;6.798;2022-07-30T06:38:06;101175.31;;;18.45;88.92
2178;BME280;1095;50.992;6.798;2022-07-30T06:40:33;101189.75;;;19.99;82.31
2178;BME280;1095;50.992;6.798;2022-07-30T06:42:59;101166.84;;;20.31;79.51
2178;BME280;1095;50.992;6.798;2022-07-30T06:45:27;101161.28;;;21.10;77.29
2178;BME280;1095;50.992;6.798;2022-07-30T06:47:55;101159.94;;;20.95;76.32
2178;BME280;1095;50.992;6.798;2022-07-30T06:50:23;101165.16;;;20.63;77.23
2178;BME280;1095;50.992;6.798;2022-07-30T06:52:49;101179.72;;;19.62;81.44
2178;BME280;1095;50.992;6.798;2022-07-30T06:55:16;101178.72;;;20.15;80.14
2178;BME280;1095;50.992;6.798;2022-07-30T06:57:42;101175.00;;;20.56;77.56
2178;BME280;1095;50.992;6.798;2022-07-30T07:00:09;101182.72;;;20.77;76.69
2178;BME280;1095;50.992;6.798;2022-07-30T07:02:36;101181.22;;;20.95;75.69
2178;BME280;1095;50.992;6.798;2022-07-30T07:05:03;101196.25;;;20.56;76.87
2178;BME280;1095;50.992;6.798;2022-07-30T07:07:32;101186.44;;;20.57;77.97
2178;BME280;1095;50.992;6.798;2022-07-30T07:09:59;101187.47;;;20.36;78.81
2178;BME280;1095;50.992;6.798;2022-07-30T07:12:25;101188.94;;;19.79;80.17
2178;BME280;1095;50.992;6.798;2022-07-30T07:14:52;101193.53;;;19.50;81.20
2178;BME280;1095;50.992;6.798;2022-07-30T07:17:18;101192.56;;;19.51;81.54
2178;BME280;1095;50.992;6.798;2022-07-30T07:19:44;101187.09;;;19.79;81.06
2178;BME280;1095;50.992;6.798;2022-07-30T07:22:11;101193.44;;;19.78;79.98
2178;BME280;1095;50.992;6.798;2022-07-30T07:24:39;101192.97;;;20.67;78.08
2178;BME280;1095;50.992;6.798;2022-07-30T07:27:05;101178.91;;;21.49;73.69
2178;BME280;1095;50.992;6.798;2022-07-30T07:29:32;101181.94;;;21.60;73.24
2178;BME280;1095;50.992;6.798;2022-07-30T07:31:58;101169.75;;;22.45;71.00
2178;BME280;1095;50.992;6.798;2022-07-30T07:34:25;101176.78;;;23.42;68.23
2178;BME280;1095;50.992;6.798;2022-07-30T07:36:51;101183.63;;;23.20;67.32
2178;BME280;1095;50.992;6.798;2022-07-30T07:39:18;101188.44;;;22.63;69.13
2178;BME280;1095;50.992;6.798;2022-07-30T07:41:46;101180.56;;;23.53;67.92
2178;BME280;1095;50.992;6.798;2022-07-30T07:44:12;101182.22;;;22.88;67.96
2178;BME280;1095;50.992;6.798;2022-07-30T07:46:38;101183.31;;;22.98;67.92
2178;BME280;1095;50.992;6.798;2022-07-30T07:49:05;101181.88;;;23.62;65.91
2178;BME280;1095;50.992;6.798;2022-07-30T07:51:31;101196.31;;;24.78;63.66
2178;BME280;1095;50.992;6.798;2022-07-30T07:54:00;101187.28;;;24.32;63.43
2178;BME280;1095;50.992;6.798;2022-07-30T07:56:26;101191.47;;;23.33;66.28
2178;BME280;1095;50.992;6.798;2022-07-30T07:58:54;101187.94;;;23.51;66.08
2178;BME280;1095;50.992;6.798;2022-07-30T08:01:21;101187.72;;;23.53;66.71
2178;BME280;1095;50.992;6.798;2022-07-30T08:03:48;101191.31;;;24.23;64.86
2178;BME280;1095;50.992;6.798;2022-07-30T08:06:14;101189.13;;;23.25;66.06
2178;BME280;1095;50.992;6.798;2022-07-30T08:08:40;101182.69;;;23.44;65.47
2178;BME280;1095;50.992;6.798;2022-07-30T08:11:07;101187.91;;;23.81;65.64
2178;BME280;1095;50.992;6.798;2022-07-30T08:13:33;101178.34;;;24.27;64.04
2178;BME280;1095;50.992;6.798;2022-07-30T08:16:01;101180.69;;;23.70;65.19
2178;BME280;1095;50.992;6.798;2022-07-30T08:18:32;101190.50;;;22.61;68.24
2178;BME280;1095;50.992;6.798;2022-07-30T08:20:58;101183.47;;;23.63;65.35
2178;BME280;1095;50.992;6.798;2022-07-30T08:23:25;101186.66;;;24.65;62.38
2178;BME280;1095;50.992;6.798;2022-07-30T08:25:51;101185.34;;;24.79;61.92
2178;BME280;1095;50.992;6.798;2022-07-30T08:28:17;101191.19;;;24.65;62.68
2178;BME280;1095;50.992;6.798;2022-07-30T08:30:44;101181.47;;;24.47;62.79
2178;BME280;1095;50.992;6.798;2022-07-30T08:33:15;101181.31;;;24.19;63.75
2178;BME280;1095;50.992;6.798;2022-07-30T08:35:41;101194.09;;;24.75;62.91
2178;BME280;1095;50.992;6.798;2022-07-30T08:38:08;101186.75;;;24.82;61.92
2178;BME280;1095;50.992;6.798;2022-07-30T08:40:34;101189.78;;;23.80;64.89
2178;BME280;1095;50.992;6.798;2022-07-30T08:43:01;101187.22;;;23.74;65.65
2178;BME280;1095;50.992;6.798;2022-07-30T08:45:28;101186.53;;;23.90;65.03
2178;BME280;1095;50.992;6.798;2022-07-30T08:47:55;101183.38;;;23.70;65.14
2178;BME280;1095;50.992;6.798;2022-07-30T08:50:24;101181.63;;;23.04;66.69
2178;BME280;1095;50.992;6.798;2022-07-30T08:52:50;101194.72;;;23.54;66.82
2178;BME280;1095;50.992;6.798;2022-07-30T08:55:19;101186.50;;;23.07;67.13
2178;BME280;1095;50.992;6.798;2022-07-30T08:57:46;101185.50;;;24.14;64.40
2178;BME280;1095;50.992;6.798;2022-07-30T09:00:13;101186.59;;;24.37;63.37
2178;BME280;1095;50.992;6.798;2022-07-30T09:02:40;101187.84;;;24.23;63.48
2178;BME280;1095;50.992;6.798;2022-07-30T09:05:07;101198.56;;;24.46;63.12
2178;BME280;1095;50.992;6.798;2022-07-30T09:07:35;101194.81;;;24.59;62.14
2178;BME280;1095;50.992;6.798;2022-07-30T09:10:02;101198.16;;;24.89;60.82
2178;BME280;1095;50.992;6.798;2022-07-30T09:12:33;101192.09;;;24.82;61.10
2178;BME280;1095;50.992;6.798;2022-07-30T09:15:00;101200.91;;;23.66;63.41
2178;BME280;1095;50.992;6.798;2022-07-30T09:17:26;101204.72;;;24.35;62.45
2178;BME280;1095;50.992;6.798;2022-07-30T09:20:00;101191.91;;;25.12;60.76
2178;BME280;1095;50.992;6.798;2022-07-30T09:22:39;101199.00;;;25.46;59.36
2178;BME280;1095;50.992;6.798;2022-07-30T09:25:07;101195.81;;;25.04;60.15
2178;BME280;1095;50.992;6.798;2022-07-30T09:27:42;101202.41;;;24.38;61.60
2178;BME280;1095;50.992;6.798;2022-07-30T09:30:09;101199.72;;;25.13;60.43
2178;BME280;1095;50.992;6.798;2022-07-30T09:32:45;101199.69;;;24.73;59.57
2178;BME280;1095;50.992;6.798;2022-07-30T09:35:12;101203.16;;;24.86;59.23
2178;BME280;1095;50.992;6.798;2022-07-30T09:37:40;101194.28;;;25.54;57.77
2178;BME280;1095;50.992;6.798;2022-07-30T09:40:10;101191.03;;;25.35;57.55
2178;BME280;1095;50.992;6.798;2022-07-30T09:42:36;101192.59;;;24.67;57.71
2178;BME280;1095;50.992;6.798;2022-07-30T09:45:04;101195.84;;;24.69;58.48
2178;BME280;1095;50.992;6.798;2022-07-30T09:47:31;101186.47;;;25.52;57.12
2178;BME280;1095;50.992;6.798;2022-07-30T09:50:02;101180.25;;;25.46;57.37
2178;BME280;1095;50.992;6.798;2022-07-30T09:52:28;101189.53;;;24.99;57.00
2178;BME280;1095;50.992;6.798;2022-07-30T09:54:56;101196.53;;;25.28;53.85
2178;BME280;1095;50.992;6.798;2022-07-30T09:57:23;101192.13;;;25.51;53.50
2178;BME280;1095;50.992;6.798;2022-07-30T09:59:49;101191.13;;;25.57;53.78
2178;BME280;1095;50.992;6.798;2022-07-30T10:02:16;101183.41;;;25.15;53.14
2178;BME280;1095;50.992;6.798;2022-07-30T10:04:43;101192.25;;;25.16;54.63
2178;BME280;1095;50.992;6.798;2022-07-30T10:07:16;101187.50;;;25.06;55.79
2178;BME280;1095;50.992;6.798;2022-07-30T10:09:42;101186.50;;;24.84;54.96
2178;BME280;1095;50.992;6.798;2022-07-30T10:12:12;101186.28;;;24.97;54.70
2178;BME280;1095;50.992;6.798;2022-07-30T10:14:41;101177.47;;;25.13;52.76
2178;BME280;1095;50.992;6.798;2022-07-30T10:17:08;101180.47;;;24.88;54.22
2178;BME280;1095;50.992;6.798;2022-07-30T10:19:35;101180.72;;;25.15;54.95
2178;BME280;1095;50.992;6.798;2022-07-30T10:22:02;101175.09;;;25.28;55.40
2178;BME280;1095;50.992;6.798;2022-07-30T10:24:28;101171.63;;;25.44;53.93
2178;BME280;1095;50.992;6.798;2022-07-30T10:26:55;101182.44;;;24.93;54.04
2178;BME280;1095;50.992;6.798;2022-07-30T10:29:23;101173.16;;;25.69;52.41
2178;BME280;1095;50.992;6.798;2022-07-30T10:31:50;101179.41;;;25.01;51.44
2178;BME280;1095;50.992;6.798;2022-07-30T10:34:17;101174.66;;;24.79;52.50
2178;BME280;1095;50.992;6.798;2022-07-30T10:36:45;101174.41;;;25.21;50.28
2178;BME280;1095;50.992;6.798;2022-07-30T10:39:13;101175.47;;;25.20;52.56
2178;BME280;1095;50.992;6.798;2022-07-30T10:41:44;101183.59;;;24.85;53.64
2178;BME280;1095;50.992;6.798;2022-07-30T10:47:00;101177.38;;;25.36;52.95
2178;BME280;1095;50.992;6.798;2022-07-30T10:49:27;101176.81;;;25.34;51.64
2178;BME280;1095;50.992;6.798;2022-07-30T10:51:54;101172.94;;;25.59;50.57
2178;BME280;1095;50.992;6.798;2022-07-30T10:54:36;101173.75;;;25.14;52.53
2178;BME280;1095;50.992;6.798;2022-07-30T10:57:04;101178.63;;;25.17;51.94
2178;BME280;1095;50.992;6.798;2022-07-30T11:02:13;101161.06;;;25.55;50.44
2178;BME280;1095;50.992;6.798;2022-07-30T11:04:39;101168.53;;;25.36;49.81
2178;BME280;1095;50.992;6.798;2022-07-30T11:07:25;101152.75;;;25.68;49.78
2178;BME280;1095;50.992;6.798;2022-07-30T11:09:53;101159.38;;;25.49;50.99
2178;BME280;1095;50.992;6.798;2022-07-30T11:15:02;101159.50;;;25.25;50.69
2178;BME280;1095;50.992;6.798;2022-07-30T11:17:56;101157.44;;;25.16;52.58
2178;BME280;1095;50.992;6.798;2022-07-30T11:20:19;101156.53;;;25.38;51.63
2178;BME280;1095;50.992;6.798;2022-07-30T11:22:46;101145.28;;;25.70;51.14
2178;BME280;1095;50.992;6.798;2022-07-30T11:27:55;101154.56;;;25.79;48.23
2178;BME280;1095;50.992;6.798;2022-07-30T11:30:32;101159.91;;;25.79;47.89
2178;BME280;1095;50.992;6.798;2022-07-30T11:35:51;101154.19;;;25.59;48.52
2178;BME280;1095;50.992;6.798;2022-07-30T11:38:42;101151.88;;;25.79;48.25
2178;BME280;1095;50.992;6.798;2022-07-30T11:41:15;101161.38;;;25.87;48.07
2178;BME280;1095;50.992;6.798;2022-07-30T11:43:41;101145.41;;;25.63;48.04
2178;BME280;1095;50.992;6.798;2022-07-30T11:46:09;101152.19;;;25.83;48.25
2178;BME280;1095;50.992;6.798;2022-07-30T11:48:36;101152.13;;;25.77;47.65
2178;BME280;1095;50.992;6.798;2022-07-30T11:51:04;101154.22;;;25.92;47.58
2178;BME280;1095;50.992;6.798;2022-07-30T11:53:31;101151.78;;;25.74;47.42
2178;BME280;1095;50.992;6.798;2022-07-30T11:55:58;101148.47;;;25.84;47.54
2178;BME280;1095;50.992;6.798;2022-07-30T11:58:26;101150.69;;;26.08;46.90
2178;BME280;1095;50.992;6.798;2022-07-30T12:00:52;101152.97;;;26.55;46.03
2178;BME280;1095;50.992;6.798;2022-07-30T12:03:20;101154.03;;;26.54;43.83
2178;BME280;1095;50.992;6.798;2022-07-30T12:05:47;101157.97;;;26.47;44.92
2178;BME280;1095;50.992;6.798;2022-07-30T12:08:15;101141.25;;;26.83;44.88
2178;BME280;1095;50.992;6.798;2022-07-30T12:10:42;101150.59;;;26.37;44.32
2178;BME280;1095;50.992;6.798;2022-07-30T12:13:09;101147.03;;;26.31;45.36
2178;BME280;1095;50.992;6.798;2022-07-30T12:15:37;101140.88;;;26.31;44.66
2178;BME280;1095;50.992;6.798;2022-07-30T12:18:03;101152.53;;;26.25;44.05
2178;BME280;1095;50.992;6.798;2022-07-30T12:20:30;101144.56;;;26.30;45.10
2178;BME280;1095;50.992;6.798;2022-07-30T12:22:56;101139.44;;;26.45;44.46
2178;BME280;1095;50.992;6.798;2022-07-30T12:25:24;101130.75;;;26.38;45.07
2178;BME280;1095;50.992;6.798;2022-07-30T12:27:51;101141.00;;;26.63;43.29
2178;BME280;1095;50.992;6.798;2022-07-30T12:30:17;101129.56;;;26.51;44.10
2178;BME280;1095;50.992;6.798;2022-07-30T12:32:44;101135.56;;;26.58;43.79
2178;BME280;1095;50.992;6.798;2022-07-30T12:35:10;101137.63;;;26.51;44.18
2178;BME280;1095;50.992;6.798;2022-07-30T12:37:37;101130.03;;;26.26;45.09
2178;BME280;1095;50.992;6.798;2022-07-30T12:40:05;101134.25;;;26.60;44.59
2178;BME280;1095;50.992;6.798;2022-07-30T12:42:34;101128.31;;;26.58;44.11
2178;BME280;1095;50.992;6.798;2022-07-30T12:45:01;101124.63;;;26.64;43.96
2178;BME280;1095;50.992;6.798;2022-07-30T12:47:28;101131.16;;;26.95;43.37
2178;BME280;1095;50.992;6.798;2022-07-30T12:49:55;101129.13;;;26.81;44.47
2178;BME280;1095;50.992;6.798;2022-07-30T12:52:23;101122.88;;;26.75;44.36
2178;BME280;1095;50.992;6.798;2022-07-30T12:54:59;101134.94;;;26.72;44.43
2178;BME280;1095;50.992;6.798;2022-07-30T12:57:25;101118.88;;;26.77;44.27
2178;BME280;1095;50.992;6.798;2022-07-30T13:00:08;101121.81;;;26.98;43.59
2178;BME280;1095;50.992;6.798;2022-07-30T13:02:35;101118.56;;;26.96;44.22
2178;BME280;1095;50.992;6.798;2022-07-30T13:05:01;101120.50;;;26.78;44.63
2178;BME280;1095;50.992;6.798;2022-07-30T13:07:29;101123.38;;;26.94;43.93
2178;BME280;1095;50.992;6.798;2022-07-30T13:10:05;101128.63;;;26.84;45.00
2178;BME280;1095;50.992;6.798;2022-07-30T13:12:32;101126.22;;;27.09;45.21
2178;BME280;1095;50.992;6.798;2022-07-30T13:14:59;101120.25;;;27.02;46.13
2178;BME280;1095;50.992;6.798;2022-07-30T13:17:27;101117.13;;;26.88;45.92
2178;BME280;1095;50.992;6.798;2022-07-30T13:19:53;101118.88;;;26.77;45.12
2178;BME280;1095;50.992;6.798;2022-07-30T13:22:20;101112.84;;;26.65;46.49
2178;BME280;1095;50.992;6.798;2022-07-30T13:24:46;101120.13;;;26.92;46.03
2178;BME280;1095;50.992;6.798;2022-07-30T13:27:12;101118.50;;;26.91;46.88
2178;BME280;1095;50.992;6.798;2022-07-30T13:29:40;101116.25;;;27.31;46.48
2178;BME280;1095;50.992;6.798;2022-07-30T13:32:07;101122.13;;;27.28;45.18